sensor_id;sensor_type;location;lat;lon;timestamp;P1;durP1;ratioP1;P2;durP2;ratioP2
67164;SDS011;54093;50.014;19.984;2024-02-21T00:05:51;6.07;;;3.13;;
67164;SDS011;54093;50.014;19.984;2024-02-21T00:15:12;3.35;;;3.10;;
67164;SDS011;54093;50.014;19.984;2024-02-21T00:24:33;4.53;;;3.13;;
67164;SDS011;54093;50.014;19.984;2024-02-21T00:33:54;9.32;;;4.68;;
67164;SDS011;54093;50.014;19.984;2024-02-21T00:43:15;3.28;;;3.10;;
67164;SDS011;54093;50.014;19.984;2024-02-21T00:52:36;4.45;;;3.90;;
67164;SDS011;54093;50.014;19.984;2024-02-21T01:01:57;4.47;;;3.80;;
67164;SDS011;54093;50.014;19.984;2024-02-21T01:11:18;4.40;;;4.00;;
67164;SDS011;54093;50.014;19.984;2024-02-21T01:20:39;8.07;;;5.40;;
67164;SDS011;54093;50.014;19.984;2024-02-21T01:30:00;10.80;;;5.20;;
67164;SDS011;54093;50.014;19.984;2024-02-21T01:39:21;9.18;;;5.13;;
67164;SDS011;54093;50.014;19.984;2024-02-21T01:48:42;6.47;;;4.50;;
67164;SDS011;54093;50.014;19.984;2024-02-21T01:58:03;10.93;;;6.53;;
67164;SDS011;54093;50.014;19.984;2024-02-21T02:07:24;10.70;;;6.20;;
67164;SDS011;54093;50.014;19.984;2024-02-21T02:16:46;15.40;;;6.75;;
67164;SDS011;54093;50.014;19.984;2024-02-21T02:26:08;7.88;;;4.85;;
67164;SDS011;54093;50.014;19.984;2024-02-21T02:35:29;7.57;;;5.45;;
67164;SDS011;54093;50.014;19.984;2024-02-21T02:44:50;13.20;;;6.10;;
67164;SDS011;54093;50.014;19.984;2024-02-21T02:54:11;8.52;;;4.32;;
67164;SDS011;54093;50.014;19.984;2024-02-21T03:03:32;5.97;;;3.80;;
67164;SDS011;54093;50.014;19.984;2024-02-21T03:12:54;5.10;;;3.85;;
67164;SDS011;54093;50.014;19.984;2024-02-21T03:22:15;9.70;;;5.22;;
67164;SDS011;54093;50.014;19.984;2024-02-21T03:31:36;7.70;;;3.83;;
67164;SDS011;54093;50.014;19.984;2024-02-21T03:40:58;4.38;;;3.72;;
67164;SDS011;54093;50.014;19.984;2024-02-21T03:50:19;15.57;;;4.80;;
67164;SDS011;54093;50.014;19.984;2024-02-21T03:59:40;8.73;;;4.68;;
67164;SDS011;54093;50.014;19.984;2024-02-21T04:09:01;11.35;;;4.53;;
67164;SDS011;54093;50.014;19.984;2024-02-21T04:18:22;9.38;;;3.95;;
67164;SDS011;54093;50.014;19.984;2024-02-21T04:27:43;12.40;;;3.67;;
67164;SDS011;54093;50.014;19.984;2024-02-21T04:37:04;7.78;;;5.50;;
67164;SDS011;54093;50.014;19.984;2024-02-21T04:46:25;4.88;;;3.33;;
67164;SDS011;54093;50.014;19.984;2024-02-21T04:55:45;5.65;;;3.72;;
67164;SDS011;54093;50.014;19.984;2024-02-21T05:05:07;5.28;;;2.22;;
67164;SDS011;54093;50.014;19.984;2024-02-21T05:14:29;2.50;;;2.38;;
67164;SDS011;54093;50.014;19.984;2024-02-21T05:23:50;6.53;;;2.78;;
67164;SDS011;54093;50.014;19.984;2024-02-21T05:33:11;7.10;;;2.40;;
67164;SDS011;54093;50.014;19.984;2024-02-21T05:42:33;6.55;;;3.08;;
67164;SDS011;54093;50.014;19.984;2024-02-21T05:51:54;7.35;;;2.78;;
67164;SDS011;54093;50.014;19.984;2024-02-21T06:01:15;6.97;;;2.13;;
67164;SDS011;54093;50.014;19.984;2024-02-21T06:10:36;2.33;;;2.20;;
67164;SDS011;54093;50.014;19.984;2024-02-21T06:19:57;3.67;;;1.95;;
67164;SDS011;54093;50.014;19.984;2024-02-21T06:29:18;3.05;;;2.75;;
67164;SDS011;54093;50.014;19.984;2024-02-21T06:38:39;4.10;;;2.65;;
67164;SDS011;54093;50.014;19.984;2024-02-21T06:48:00;2.75;;;2.53;;
67164;SDS011;54093;50.014;19.984;2024-02-21T06:57:21;4.80;;;2.42;;
67164;SDS011;54093;50.014;19.984;2024-02-21T07:06:42;12.73;;;2.55;;
67164;SDS011;54093;50.014;19.984;2024-02-21T07:16:03;3.20;;;2.30;;
67164;SDS011;54093;50.014;19.984;2024-02-21T07:25:24;3.72;;;2.13;;
67164;SDS011;54093;50.014;19.984;2024-02-21T07:34:45;3.50;;;2.63;;
67164;SDS011;54093;50.014;19.984;2024-02-21T07:44:06;2.55;;;1.60;;
67164;SDS011;54093;50.014;19.984;2024-02-21T07:53:27;5.80;;;2.80;;
67164;SDS011;54093;50.014;19.984;2024-02-21T08:02:48;5.15;;;2.05;;
67164;SDS011;54093;50.014;19.984;2024-02-21T08:12:10;2.30;;;2.13;;
67164;SDS011;54093;50.014;19.984;2024-02-21T08:21:31;2.28;;;1.73;;
67164;SDS011;54093;50.014;19.984;2024-02-21T08:30:52;4.22;;;2.03;;
67164;SDS011;54093;50.014;19.984;2024-02-21T08:40:13;2.10;;;1.63;;
67164;SDS011;54093;50.014;19.984;2024-02-21T08:49:38;1.90;;;1.80;;
67164;SDS011;54093;50.014;19.984;2024-02-21T08:58:59;1.83;;;1.73;;
67164;SDS011;54093;50.014;19.984;2024-02-21T09:08:20;3.67;;;2.30;;
67164;SDS011;54093;50.014;19.984;2024-02-21T09:17:41;8.18;;;2.85;;
67164;SDS011;54093;50.014;19.984;2024-02-21T09:27:03;12.95;;;2.22;;
67164;SDS011;54093;50.014;19.984;2024-02-21T09:36:24;5.35;;;2.28;;
67164;SDS011;54093;50.014;19.984;2024-02-21T09:45:45;5.20;;;2.28;;
67164;SDS011;54093;50.014;19.984;2024-02-21T09:55:07;2.90;;;1.90;;
67164;SDS011;54093;50.014;19.984;2024-02-21T10:04:31;4.25;;;1.48;;
67164;SDS011;54093;50.014;19.984;2024-02-21T10:14:05;2.50;;;2.00;;
67164;SDS011;54093;50.014;19.984;2024-02-21T10:23:26;1.25;;;1.23;;
67164;SDS011;54093;50.014;19.984;2024-02-21T10:32:49;3.03;;;1.77;;
67164;SDS011;54093;50.014;19.984;2024-02-21T10:42:11;5.93;;;1.92;;
67164;SDS011;54093;50.014;19.984;2024-02-21T10:51:35;4.13;;;1.98;;
67164;SDS011;54093;50.014;19.984;2024-02-21T11:01:02;1.38;;;1.27;;
67164;SDS011;54093;50.014;19.984;2024-02-21T11:10:26;2.35;;;1.75;;
67164;SDS011;54093;50.014;19.984;2024-02-21T11:19:47;2.58;;;1.50;;
67164;SDS011;54093;50.014;19.984;2024-02-21T11:29:08;2.67;;;1.65;;
67164;SDS011;54093;50.014;19.984;2024-02-21T11:38:31;3.25;;;1.88;;
67164;SDS011;54093;50.014;19.984;2024-02-21T11:47:52;2.47;;;1.40;;
67164;SDS011;54093;50.014;19.984;2024-02-21T11:57:13;2.10;;;1.90;;
67164;SDS011;54093;50.014;19.984;2024-02-21T12:07:05;3.42;;;1.98;;
67164;SDS011;54093;50.014;19.984;2024-02-21T12:16:27;2.47;;;2.28;;
67164;SDS011;54093;50.014;19.984;2024-02-21T12:25:51;3.17;;;1.88;;
67164;SDS011;54093;50.014;19.984;2024-02-21T12:35:15;5.13;;;2.63;;
67164;SDS011;54093;50.014;19.984;2024-02-21T12:44:36;5.90;;;2.20;;
67164;SDS011;54093;50.014;19.984;2024-02-21T12:53:57;2.10;;;2.00;;
67164;SDS011;54093;50.014;19.984;2024-02-21T13:03:18;1.95;;;1.85;;
67164;SDS011;54093;50.014;19.984;2024-02-21T13:12:39;1.52;;;1.50;;
67164;SDS011;54093;50.014;19.984;2024-02-21T13:22:00;3.53;;;2.10;;
67164;SDS011;54093;50.014;19.984;2024-02-21T13:31:22;2.65;;;2.45;;
67164;SDS011;54093;50.014;19.984;2024-02-21T13:40:45;2.35;;;2.03;;
67164;SDS011;54093;50.014;19.984;2024-02-21T13:50:06;2.92;;;2.70;;
67164;SDS011;54093;50.014;19.984;2024-02-21T13:59:32;4.33;;;2.63;;
67164;SDS011;54093;50.014;19.984;2024-02-21T14:08:54;2.08;;;1.90;;
67164;SDS011;54093;50.014;19.984;2024-02-21T14:18:15;4.82;;;2.20;;
67164;SDS011;54093;50.014;19.984;2024-02-21T14:27:36;5.07;;;2.60;;
67164;SDS011;54093;50.014;19.984;2024-02-21T14:36:58;4.05;;;2.38;;
67164;SDS011;54093;50.014;19.984;2024-02-21T14:46:19;2.40;;;2.20;;
67164;SDS011;54093;50.014;19.984;2024-02-21T14:55:40;6.93;;;2.75;;
67164;SDS011;54093;50.014;19.984;2024-02-21T15:05:02;2.95;;;2.08;;
67164;SDS011;54093;50.014;19.984;2024-02-21T15:14:26;2.33;;;2.22;;
67164;SDS011;54093;50.014;19.984;2024-02-21T15:23:48;3.28;;;2.97;;
67164;SDS011;54093;50.014;19.984;2024-02-21T15:33:10;4.03;;;2.85;;
67164;SDS011;54093;50.014;19.984;2024-02-21T15:42:31;6.13;;;2.78;;
67164;SDS011;54093;50.014;19.984;2024-02-21T15:51:53;3.67;;;2.53;;
67164;SDS011;54093;50.014;19.984;2024-02-21T16:01:15;3.33;;;2.70;;
67164;SDS011;54093;50.014;19.984;2024-02-21T16:10:36;2.50;;;2.30;;
67164;SDS011;54093;50.014;19.984;2024-02-21T16:19:57;3.58;;;2.15;;
67164;SDS011;54093;50.014;19.984;2024-02-21T16:29:18;2.85;;;2.50;;
67164;SDS011;54093;50.014;19.984;2024-02-21T16:38:39;3.03;;;2.47;;
67164;SDS011;54093;50.014;19.984;2024-02-21T16:48:02;2.67;;;2.45;;
67164;SDS011;54093;50.014;19.984;2024-02-21T16:57:26;3.92;;;2.00;;
67164;SDS011;54093;50.014;19.984;2024-02-21T17:06:47;2.67;;;2.35;;
67164;SDS011;54093;50.014;19.984;2024-02-21T17:16:08;4.88;;;2.80;;
67164;SDS011;54093;50.014;19.984;2024-02-21T17:25:31;2.78;;;2.58;;
67164;SDS011;54093;50.014;19.984;2024-02-21T17:34:52;2.80;;;2.60;;
67164;SDS011;54093;50.014;19.984;2024-02-21T17:44:13;2.05;;;1.95;;
67164;SDS011;54093;50.014;19.984;2024-02-21T17:53:34;3.85;;;2.60;;
67164;SDS011;54093;50.014;19.984;2024-02-21T18:02:55;3.55;;;2.10;;
67164;SDS011;54093;50.014;19.984;2024-02-21T18:12:16;2.45;;;2.35;;
67164;SDS011;54093;50.014;19.984;2024-02-21T18:21:37;5.85;;;3.00;;
67164;SDS011;54093;50.014;19.984;2024-02-21T18:31:00;3.05;;;2.63;;
67164;SDS011;54093;50.014;19.984;2024-02-21T18:40:21;2.75;;;2.38;;
67164;SDS011;54093;50.014;19.984;2024-02-21T18:49:42;3.00;;;2.33;;
67164;SDS011;54093;50.014;19.984;2024-02-21T18:59:04;2.03;;;1.92;;
67164;SDS011;54093;50.014;19.984;2024-02-21T19:08:25;2.70;;;2.50;;
67164;SDS011;54093;50.014;19.984;2024-02-21T19:17:46;5.15;;;4.03;;
67164;SDS011;54093;50.014;19.984;2024-02-21T19:27:07;2.58;;;2.47;;
67164;SDS011;54093;50.014;19.984;2024-02-21T19:36:28;5.32;;;3.13;;
67164;SDS011;54093;50.014;19.984;2024-02-21T19:45:49;8.68;;;3.63;;
67164;SDS011;54093;50.014;19.984;2024-02-21T19:55:10;7.75;;;4.40;;
67164;SDS011;54093;50.014;19.984;2024-02-21T20:04:32;4.47;;;2.90;;
67164;SDS011;54093;50.014;19.984;2024-02-21T20:13:53;2.90;;;2.60;;
67164;SDS011;54093;50.014;19.984;2024-02-21T20:23:14;5.63;;;2.60;;
67164;SDS011;54093;50.014;19.984;2024-02-21T20:32:35;8.48;;;4.75;;
67164;SDS011;54093;50.014;19.984;2024-02-21T20:41:56;4.10;;;3.65;;
67164;SDS011;54093;50.014;19.984;2024-02-21T20:51:18;7.40;;;4.07;;
67164;SDS011;54093;50.014;19.984;2024-02-21T21:00:39;5.07;;;4.68;;
67164;SDS011;54093;50.014;19.984;2024-02-21T21:10:00;4.43;;;4.07;;
67164;SDS011;54093;50.014;19.984;2024-02-21T21:19:21;3.58;;;2.85;;
67164;SDS011;54093;50.014;19.984;2024-02-21T21:28:41;4.30;;;3.53;;
67164;SDS011;54093;50.014;19.984;2024-02-21T21:38:03;2.83;;;2.63;;
67164;SDS011;54093;50.014;19.984;2024-02-21T21:47:24;4.80;;;2.92;;
67164;SDS011;54093;50.014;19.984;2024-02-21T21:56:45;4.97;;;3.63;;
67164;SDS011;54093;50.014;19.984;2024-02-21T22:06:07;2.65;;;2.45;;
67164;SDS011;54093;50.014;19.984;2024-02-21T22:15:28;2.75;;;2.55;;
67164;SDS011;54093;50.014;19.984;2024-02-21T22:24:49;2.95;;;2.50;;
67164;SDS011;54093;50.014;19.984;2024-02-21T22:34:10;2.60;;;2.40;;
67164;SDS011;54093;50.014;19.984;2024-02-21T22:43:31;4.45;;;2.55;;
67164;SDS011;54093;50.014;19.984;2024-02-21T22:52:52;3.40;;;3.10;;
67164;SDS011;54093;50.014;19.984;2024-02-21T23:02:13;2.67;;;2.47;;
67164;SDS011;54093;50.014;19.984;2024-02-21T23:11:34;5.03;;;3.78;;
67164;SDS011;54093;50.014;19.984;2024-02-21T23:20:55;3.95;;;2.55;;
67164;SDS011;54093;50.014;19.984;2024-02-21T23:30:16;2.55;;;2.35;;
67164;SDS011;54093;50.014;19.984;2024-02-21T23:39:38;2.50;;;2.30;;
67164;SDS011;54093;50.014;19.984;2024-02-21T23:48:59;4.15;;;2.90;;
67164;SDS011;54093;50.014;19.984;2024-02-21T23:58:23;2.55;;;2.38;;
